createdAt,value
2023-01-30T07:03:38.492Z,10.13
2023-01-30T07:06:12.631Z,10.40
2023-01-30T07:08:41.015Z,12.40
2023-01-30T07:11:08.361Z,10.53
2023-01-30T07:13:35.671Z,11.67
2023-01-30T07:16:03.015Z,12.10
2023-01-30T07:18:30.563Z,11.93
2023-01-30T07:20:57.884Z,11.40
2023-01-30T07:23:25.225Z,11.83
2023-01-30T07:25:52.604Z,12.43
2023-01-30T07:28:19.942Z,12.73
2023-01-30T07:30:47.344Z,12.20
2023-01-30T07:34:05.583Z,13.47
2023-01-30T07:36:34.762Z,12.10
2023-01-30T07:39:02.208Z,11.73
2023-01-30T07:41:29.518Z,12.77
2023-01-30T07:43:56.879Z,12.33
2023-01-30T07:46:24.301Z,12.57
2023-01-30T07:48:51.581Z,13.40
2023-01-30T07:51:18.960Z,13.20
2023-01-30T07:53:50.258Z,11.20
2023-01-30T07:56:19.939Z,14.40
2023-01-30T07:58:47.233Z,13.13
2023-01-30T08:01:15.136Z,15.07
2023-01-30T08:03:43.831Z,15.20
2023-01-30T08:06:12.497Z,14.57
2023-01-30T08:08:39.839Z,16.37
2023-01-30T08:11:07.146Z,15.93
2023-01-30T08:13:34.666Z,15.73
2023-01-30T08:16:06.154Z,17.13
2023-01-30T08:18:59.156Z,17.20
2023-01-30T08:21:26.574Z,16.63
2023-01-30T08:23:53.895Z,24.67
2023-01-30T08:26:21.309Z,17.70
2023-01-30T08:28:48.809Z,18.23
2023-01-30T08:31:17.628Z,18.60
2023-01-30T08:33:45.183Z,17.57
2023-01-30T08:36:12.454Z,17.87
2023-01-30T08:38:39.822Z,18.67
2023-01-30T08:41:08.312Z,17.63
2023-01-30T08:43:36.152Z,19.10
2023-01-30T08:46:03.713Z,19.57
2023-01-30T08:48:43.335Z,18.90
2023-01-30T08:51:16.202Z,19.20
2023-01-30T08:53:43.521Z,18.43
2023-01-30T08:56:11.021Z,19.37
2023-01-30T08:58:38.393Z,20.50
2023-01-30T09:01:06.458Z,19.13
2023-01-30T09:03:33.891Z,20.67
2023-01-30T09:06:01.323Z,19.80
2023-01-30T09:08:28.873Z,21.17
2023-01-30T09:10:59.835Z,20.20
2023-01-30T09:13:27.440Z,19.80
2023-01-30T09:15:54.839Z,20.77
2023-01-30T09:18:22.304Z,20.30
2023-01-30T09:20:49.996Z,19.53
2023-01-30T09:23:17.785Z,22.20
2023-01-30T09:25:46.069Z,20.03
2023-01-30T09:28:13.466Z,20.90
2023-01-30T09:30:40.896Z,20.73
2023-01-30T09:33:08.227Z,19.67
2023-01-30T09:35:35.583Z,20.70
2023-01-30T09:38:04.348Z,21.07
2023-01-30T09:40:33.590Z,18.67
2023-01-30T09:43:06.105Z,19.37
2023-01-30T09:45:56.375Z,20.93
2023-01-30T09:48:30.232Z,19.03
2023-01-30T09:51:24.750Z,19.37
2023-01-30T09:54:10.799Z,16.20
2023-01-30T09:56:38.231Z,15.60
2023-01-30T09:59:06.940Z,18.50
2023-01-30T10:01:55.231Z,18.33
2023-01-30T10:04:26.163Z,20.00
2023-01-30T10:07:08.717Z,17.90
2023-01-30T10:09:54.792Z,17.97
2023-01-30T10:12:34.849Z,20.47
2023-01-30T10:15:04.981Z,18.83
2023-01-30T10:17:47.652Z,17.67
2023-01-30T10:20:33.901Z,19.00
2023-01-30T10:23:07.035Z,19.70
2023-01-30T10:25:46.730Z,17.73
2023-01-30T10:28:19.801Z,19.33
2023-01-30T10:30:48.636Z,18.63
2023-01-30T10:33:34.150Z,18.00
2023-01-30T10:36:07.531Z,17.93
2023-01-30T10:38:44.044Z,18.40
2023-01-30T10:41:18.611Z,16.43
2023-01-30T10:43:48.165Z,16.47
2023-01-30T10:46:27.856Z,20.03
2023-01-30T10:49:14.158Z,17.27
2023-01-30T10:51:57.369Z,19.23
2023-01-30T10:54:33.700Z,17.37
2023-01-30T10:57:04.354Z,18.33
2023-01-30T10:59:41.069Z,18.97
2023-01-30T11:02:17.641Z,19.77
2023-01-30T11:04:52.173Z,18.57
2023-01-30T11:07:19.802Z,20.03
2023-01-30T11:09:48.408Z,18.90
2023-01-30T11:12:16.034Z,19.83
2023-01-30T11:14:59.730Z,19.47
2023-01-30T11:17:33.078Z,19.70
2023-01-30T11:20:03.336Z,19.60
2023-01-30T11:22:31.997Z,17.50
2023-01-30T11:25:04.470Z,18.00
2023-01-30T11:27:33.677Z,18.73
2023-01-30T11:30:05.869Z,15.73
2023-01-30T11:32:33.443Z,18.27
2023-01-30T11:35:03.970Z,18.90
2023-01-30T11:37:36.155Z,16.43
2023-01-30T11:40:19.356Z,15.40
2023-01-30T11:43:07.187Z,15.83
2023-01-30T11:45:36.162Z,19.53
2023-01-30T11:48:05.786Z,17.37
2023-01-30T11:51:32.302Z,12.90
2023-01-30T11:53:46.350Z,17.50
2023-01-30T11:56:18.577Z,16.57
2023-01-30T11:58:50.015Z,15.87
2023-01-30T12:01:17.635Z,15.80
2023-01-30T12:03:54.952Z,15.03
2023-01-30T12:06:30.019Z,16.33
2023-01-30T12:08:57.842Z,17.60
2023-01-30T12:11:27.130Z,14.37
2023-01-30T12:14:21.146Z,15.63
2023-01-30T12:17:01.330Z,17.30
2023-01-30T12:19:37.606Z,16.93
2023-01-30T12:22:13.618Z,14.63
2023-01-30T12:24:50.885Z,16.63
2023-01-30T12:27:25.774Z,15.30
2023-01-30T12:29:53.129Z,17.30
2023-01-30T12:32:22.184Z,17.87
2023-01-30T12:34:51.467Z,13.67
2023-01-30T12:37:37.443Z,17.23
2023-01-30T12:40:04.798Z,20.47
2023-01-30T12:42:32.098Z,17.90
2023-01-30T12:45:05.021Z,19.37
2023-01-30T12:47:33.043Z,15.83
2023-01-30T12:50:12.002Z,17.07
2023-01-30T12:52:57.479Z,16.00
2023-01-30T12:55:50.256Z,15.20
2023-01-30T12:58:24.003Z,14.37
2023-01-30T13:00:51.612Z,15.83
2023-01-30T13:03:30.064Z,16.03
2023-01-30T13:06:15.880Z,15.73
2023-01-30T13:08:43.262Z,15.57
2023-01-30T13:11:17.050Z,15.90
2023-01-30T13:13:52.219Z,16.87
2023-01-30T13:16:38.545Z,15.73
2023-01-30T13:19:05.947Z,17.47
2023-01-30T13:21:40.199Z,15.97
2023-01-30T13:24:07.496Z,16.83
2023-01-30T13:26:37.063Z,17.30
2023-01-30T13:29:14.552Z,17.30
2023-01-30T13:31:47.019Z,17.40
2023-01-30T13:34:20.173Z,16.80
2023-01-30T13:36:52.800Z,17.70
2023-01-30T13:39:28.904Z,18.10
2023-01-30T13:41:59.440Z,18.40
2023-01-30T13:44:30.788Z,23.08
2023-01-30T13:47:00.136Z,22.48
2023-01-30T13:49:36.335Z,19.90
2023-01-30T13:52:07.687Z,18.90
2023-01-30T13:54:43.145Z,19.63
2023-01-30T13:57:25.234Z,20.03
2023-01-30T14:00:11.218Z,19.53
2023-01-30T14:03:01.478Z,19.73
2023-01-30T14:05:48.544Z,20.77
2023-01-30T14:08:23.559Z,20.83
2023-01-30T14:10:51.149Z,19.90
2023-01-30T14:13:19.433Z,21.07
2023-01-30T14:16:01.063Z,20.53
2023-01-30T14:18:34.037Z,19.23
2023-01-30T14:21:22.643Z,19.20
2023-01-30T14:23:57.653Z,20.53
2023-01-30T14:26:43.872Z,18.57
2023-01-30T14:29:11.730Z,19.47
2023-01-30T14:31:57.526Z,19.57
2023-01-30T14:34:45.613Z,20.50
2023-01-30T14:37:55.498Z,20.37
2023-01-30T14:40:27.572Z,18.90
2023-01-30T14:43:16.468Z,20.33
2023-01-30T14:45:55.191Z,19.60
2023-01-30T14:48:30.507Z,19.83
2023-01-30T14:51:16.542Z,26.13
2023-01-30T14:53:52.981Z,21.77
2023-01-30T14:56:21.725Z,21.20
2023-01-30T14:58:58.575Z,19.93
2023-01-30T15:01:28.342Z,20.00
2023-01-30T15:03:57.008Z,20.30
2023-01-30T15:06:26.757Z,20.60
2023-01-30T15:08:55.100Z,20.30
2023-01-30T15:11:26.539Z,22.40
2023-01-30T15:14:01.572Z,21.80
2023-01-30T15:16:29.114Z,19.17
2023-01-30T15:19:09.771Z,20.10
2023-01-30T15:21:39.828Z,20.07
2023-01-30T15:24:23.369Z,20.07
2023-01-30T15:27:02.623Z,18.83
2023-01-30T15:29:46.843Z,19.43
2023-01-30T15:32:26.323Z,19.83
2023-01-30T16:23:43.764Z,17.03
2023-01-30T16:26:17.441Z,18.13
2023-01-30T16:28:45.571Z,17.30
2023-01-30T16:31:13.203Z,18.87
2023-01-30T16:33:40.699Z,16.77
2023-01-30T16:36:28.054Z,16.73
2023-01-30T16:38:56.267Z,17.17
2023-01-30T16:41:30.175Z,16.93
2023-01-30T16:44:15.995Z,16.37
2023-01-30T16:46:43.307Z,17.10
2023-01-30T16:49:19.058Z,16.80
2023-01-30T16:51:46.963Z,17.63
2023-01-30T16:54:24.172Z,18.03
2023-01-30T16:56:53.826Z,16.60
2023-01-30T16:59:22.494Z,17.73
2023-01-30T17:01:50.006Z,16.87
2023-01-30T17:04:20.641Z,16.63
2023-01-30T17:07:00.108Z,15.90
2023-01-30T17:09:44.563Z,16.07
2023-01-30T17:12:31.115Z,16.13
2023-01-30T17:15:11.975Z,16.13
2023-01-30T17:17:39.772Z,15.03
2023-01-30T17:20:07.522Z,16.57
2023-01-30T17:22:35.829Z,15.07
2023-01-30T17:25:04.456Z,15.03
2023-01-30T17:27:32.242Z,15.43
2023-01-30T17:29:59.530Z,16.63
2023-01-30T17:32:26.981Z,16.67
2023-01-30T17:34:56.052Z,15.33
2023-01-30T17:37:23.440Z,15.13
2023-01-30T17:39:50.808Z,14.87
2023-01-30T17:42:21.068Z,15.87
2023-01-30T17:44:48.678Z,15.47
2023-01-30T17:47:15.996Z,15.87
2023-01-30T17:49:43.385Z,15.67
2023-01-30T17:52:13.589Z,13.97
2023-01-30T17:54:41.726Z,15.43
2023-01-30T17:57:11.720Z,14.83
2023-01-30T17:59:39.041Z,16.30
2023-01-30T18:02:07.313Z,16.67
2023-01-30T18:04:34.605Z,16.50
2023-01-30T18:07:04.526Z,15.27
2023-01-30T18:09:32.168Z,15.90
2023-01-30T18:11:59.575Z,15.83
2023-01-30T18:14:27.020Z,15.73
2023-01-30T18:16:59.929Z,15.43
2023-01-30T18:19:28.229Z,14.97
2023-01-30T18:21:56.657Z,15.47
2023-01-30T18:24:23.997Z,14.63
2023-01-30T18:26:51.543Z,15.07
2023-01-30T18:29:19.025Z,13.83
2023-01-30T18:31:46.490Z,14.47
2023-01-30T18:34:14.000Z,14.20
2023-01-30T18:36:41.329Z,13.13
2023-01-30T18:39:08.659Z,13.23
2023-01-30T18:41:35.964Z,14.20
2023-01-30T18:44:05.291Z,13.30
2023-01-30T18:46:33.041Z,13.70
2023-01-30T18:49:00.458Z,12.93
2023-01-30T18:51:29.733Z,13.63
2023-01-30T18:53:57.378Z,13.43
2023-01-30T18:56:26.541Z,13.60
2023-01-30T18:58:56.715Z,13.80
2023-01-30T19:01:25.387Z,13.43
2023-01-30T19:03:56.469Z,12.70
2023-01-30T19:06:23.895Z,13.60
2023-01-30T19:08:51.287Z,13.83
2023-01-30T19:11:39.136Z,14.03
2023-01-30T19:14:07.206Z,13.20
2023-01-30T19:16:35.708Z,13.97
2023-01-30T19:19:03.289Z,13.40
2023-01-30T19:21:31.060Z,13.10
2023-01-30T19:23:58.597Z,13.37
2023-01-30T19:26:26.107Z,13.87
2023-01-30T19:28:53.432Z,13.63
2023-01-30T19:31:21.886Z,13.63
2023-01-30T19:33:54.538Z,14.10
2023-01-30T19:36:22.959Z,13.17
2023-01-30T19:38:50.639Z,14.10
2023-01-30T19:41:19.107Z,13.93
2023-01-30T19:43:46.444Z,14.30
2023-01-30T19:46:15.072Z,14.40
2023-01-30T19:48:43.661Z,14.07
2023-01-30T19:51:15.782Z,15.00
2023-01-30T19:53:44.281Z,14.33
2023-01-30T19:56:12.443Z,14.17
2023-01-30T19:58:40.356Z,15.03
2023-01-30T20:01:15.944Z,15.77
2023-01-30T20:03:43.893Z,14.37
2023-01-30T20:06:13.258Z,15.40
2023-01-30T20:08:41.124Z,16.17
2023-01-30T20:11:09.874Z,15.23
2023-01-30T20:13:37.825Z,15.40
2023-01-30T20:16:06.695Z,15.13
2023-01-30T20:18:35.350Z,15.97
2023-01-30T20:21:09.509Z,14.77
2023-01-30T20:23:37.178Z,15.13
2023-01-30T20:26:08.020Z,15.50
2023-01-30T20:28:35.903Z,15.57
2023-01-30T20:31:20.421Z,16.10
2023-01-30T20:33:47.842Z,16.10
2023-01-30T20:36:16.520Z,15.83
2023-01-30T20:38:44.301Z,14.40
2023-01-30T20:41:11.778Z,16.00
2023-01-30T20:43:40.193Z,15.77
2023-01-30T20:46:11.658Z,15.47
2023-01-30T20:48:39.502Z,15.77
2023-01-30T20:51:08.252Z,14.80
2023-01-30T20:53:35.690Z,14.17
2023-01-30T20:56:03.636Z,13.90
2023-01-30T20:58:31.102Z,14.63
2023-01-30T21:01:06.620Z,13.63
2023-01-30T21:03:34.028Z,14.17
2023-01-30T21:06:01.838Z,13.33
2023-01-30T21:08:29.242Z,11.90
2023-01-30T21:11:03.219Z,12.90
2023-01-30T21:13:30.727Z,13.40
2023-01-30T21:16:02.020Z,12.43
2023-01-30T21:18:33.512Z,13.60
2023-01-30T21:21:01.292Z,14.70
2023-01-30T21:23:29.255Z,14.23
2023-01-30T21:25:56.747Z,13.83
2023-01-30T21:28:24.078Z,13.33
2023-01-30T21:30:51.557Z,14.40
2023-01-30T21:33:18.981Z,13.93
2023-01-30T21:35:46.382Z,13.90
2023-01-30T21:38:32.301Z,14.33
2023-01-30T21:41:18.304Z,14.30
2023-01-30T21:43:48.629Z,13.57
2023-01-30T21:46:19.432Z,13.50
2023-01-30T21:48:46.886Z,13.03
2023-01-30T21:51:14.773Z,13.57
2023-01-30T21:53:42.185Z,13.37
2023-01-30T21:56:09.472Z,12.63
2023-01-30T21:58:36.792Z,14.70
2023-01-30T22:01:08.182Z,13.17
2023-01-30T22:03:36.481Z,13.83
2023-01-30T22:06:04.017Z,14.03
2023-01-30T22:08:31.322Z,13.83
2023-01-30T22:11:08.694Z,12.93
2023-01-30T22:13:37.522Z,12.83
2023-01-30T22:16:09.322Z,12.40
2023-01-30T22:18:37.032Z,12.30
